Kathmandu/Tribhuvan International Airport

Airport
ICAO code: 
VNKT
IATA Code: 
KTM
Summary
ICAO Region: 
APAC
Territory: 
Location: 
Kathmandu,
Serving: 
Kathmandu
Elevation: 
4390 ft
Coordinates: 
Aerial View: 
27° 41' 49.992" N, 85° 21' 28.008" E
Metar
Observation
VNKT 050220Z 00000KT 5000 BR FEW010 SCT030 12/11 Q1024 NOSIG
Station
Kathmandu Airport
Date/Time
2021-12-05 02:20:00
Wind direction
Wind speed
00 kts
Lowest cloud amount
few clouds
Temperature
12°C
Dew point
11°C
Humidity
93%
QNH
1024 hPa
Weather condition
n/a

International airport serving the capital city of Nepal.

Climatology

Humid “subtropical” climate (Köppen climate classification Cwa) - characterized by hot, humid summers and cool winters. Significant amounts of precipitation occur in all seasons in most areas. Humid subtropical climates in Asia differ from those in other continents, in that they generally have a pronounced dry winter.

Runways

Designator Length Width Surface Rops
2/20 3050 45 ASP Yes/Yes
Airport map: 
Aerial View: 

SKYbrary Partners:

Safety knowledge contributed by: